TimeMST,TemperatureF,Dew PointF,Humidity,Sea Level PressureIn,VisibilityMPH,Wind Direction,Wind SpeedMPH,Gust SpeedMPH,PrecipitationIn,Events,Conditions,WindDirDegrees,DateUTC
12:15 AM,30.2,5.0,34,30.33,10.0,Calm,Calm,-,N/A,,Clear,0,2013-01-24 07:15:00
12:35 AM,26.6,3.2,37,30.33,10.0,Calm,Calm,-,N/A,,Clear,0,2013-01-24 07:35:00
12:55 AM,23.0,1.4,39,30.33,10.0,Calm,Calm,-,N/A,,Clear,0,2013-01-24 07:55:00
1:15 AM,23.0,1.4,39,30.33,10.0,Calm,Calm,-,N/A,,Clear,0,2013-01-24 08:15:00
1:35 AM,23.0,1.4,39,30.33,10.0,Calm,Calm,-,N/A,,Clear,0,2013-01-24 08:35:00
1:55 AM,19.4,-0.4,42,30.33,10.0,Calm,Calm,-,N/A,,Clear,0,2013-01-24 08:55:00
2:15 AM,23.0,1.4,39,30.33,10.0,Calm,Calm,-,N/A,,Clear,0,2013-01-24 09:15:00
2:35 AM,23.0,-0.4,36,30.34,10.0,Calm,Calm,-,N/A,,Clear,0,2013-01-24 09:35:00
2:55 AM,19.4,-0.4,42,30.34,10.0,Calm,Calm,-,N/A,,Clear,0,2013-01-24 09:55:00
3:15 AM,23.0,1.4,39,30.34,10.0,Calm,Calm,-,N/A,,Clear,0,2013-01-24 10:15:00
3:35 AM,19.4,1.4,46,30.34,10.0,WNW,4.6,-,N/A,,Clear,300,2013-01-24 10:35:00
3:55 AM,23.0,1.4,39,30.33,10.0,Calm,Calm,-,N/A,,Clear,0,2013-01-24 10:55:00
4:15 AM,23.0,1.4,39,30.32,10.0,Calm,Calm,-,N/A,,Clear,0,2013-01-24 11:15:00
4:35 AM,23.0,1.4,39,30.33,10.0,NNW,3.5,-,N/A,,Clear,330,2013-01-24 11:35:00
5:50 AM,17.6,-0.4,45,30.33,10.0,SW,4.6,-,N/A,,Clear,220,2013-01-24 12:50:00
6:50 AM,21.2,-0.4,39,30.34,10.0,Calm,Calm,-,N/A,,Scattered Clouds,0,2013-01-24 13:50:00
7:50 AM,23.0,1.4,39,30.33,10.0,Calm,Calm,-,N/A,,Mostly Cloudy,0,2013-01-24 14:50:00
8:50 AM,37.4,8.6,30,30.34,10.0,Calm,Calm,-,N/A,,Mostly Cloudy,0,2013-01-24 15:50:00
9:50 AM,44.6,8.6,23,30.34,10.0,Calm,Calm,-,N/A,,Mostly Cloudy,0,2013-01-24 16:50:00
10:50 AM,48.2,8.6,20,30.34,10.0,SE,3.5,-,N/A,,Mostly Cloudy,140,2013-01-24 17:50:00
11:50 AM,50.0,10.4,20,30.33,10.0,South,4.6,-,N/A,,Mostly Cloudy,180,2013-01-24 18:50:00
12:50 PM,55.4,12.2,18,30.28,10.0,SW,5.8,-,N/A,,Mostly Cloudy,220,2013-01-24 19:50:00
1:50 PM,57.2,14.0,18,30.24,10.0,South,5.8,-,N/A,,Mostly Cloudy,180,2013-01-24 20:50:00
2:50 PM,57.2,17.6,21,30.22,10.0,Calm,Calm,-,N/A,,Mostly Cloudy,0,2013-01-24 21:50:00
3:50 PM,57.2,17.6,21,30.22,10.0,WSW,5.8,-,N/A,,Mostly Cloudy,250,2013-01-24 22:50:00
4:50 PM,55.4,14.0,20,30.24,10.0,SSW,6.9,-,N/A,,Mostly Cloudy,210,2013-01-24 23:50:00
5:50 PM,53.6,19.4,26,30.25,10.0,WNW,8.1,-,N/A,,Overcast,290,2013-01-25 00:50:00
6:50 PM,50.0,24.8,37,30.26,10.0,NW,8.1,-,N/A,,Overcast,320,2013-01-25 01:50:00
7:50 PM,50.0,28.4,43,30.28,10.0,NNW,12.7,-,N/A,,Overcast,330,2013-01-25 02:50:00
9:15 PM,44.6,28.4,53,30.28,10.0,NNW,8.1,-,N/A,,Partly Cloudy,330,2013-01-25 04:15:00
9:35 PM,44.6,28.4,53,30.28,10.0,NW,4.6,-,N/A,,Partly Cloudy,320,2013-01-25 04:35:00
9:55 PM,42.8,28.4,57,30.29,10.0,Calm,Calm,-,N/A,,Clear,0,2013-01-25 04:55:00
10:15 PM,44.6,30.2,57,30.28,10.0,North,9.2,-,N/A,,Clear,350,2013-01-25 05:15:00
10:35 PM,42.8,30.2,61,30.30,10.0,NNW,9.2,-,N/A,,Clear,330,2013-01-25 05:35:00
10:55 PM,42.8,32.0,66,30.30,10.0,NNW,11.5,-,N/A,,Clear,340,2013-01-25 05:55:00
11:15 PM,42.8,32.0,66,30.29,10.0,North,10.4,-,N/A,,Clear,350,2013-01-25 06:15:00
11:35 PM,39.2,30.2,70,30.30,10.0,NW,8.1,-,N/A,,Clear,310,2013-01-25 06:35:00
11:55 PM,39.2,30.2,70,30.30,10.0,NW,9.2,-,N/A,,Clear,310,2013-01-25 06:55:00